sensor_id;sensor_type;location;lat;lon;timestamp;temperature;humidity
14014;DHT22;49110;52.584;13.408;2022-12-07T00:00:40;4.90;99.90
14014;DHT22;49110;52.584;13.408;2022-12-07T00:01:42;5.00;99.90
14014;DHT22;49110;52.584;13.408;2022-12-07T00:02:43;5.10;99.90
14014;DHT22;49110;52.584;13.408;2022-12-07T00:03:45;5.10;99.90
14014;DHT22;49110;52.584;13.408;2022-12-07T00:04:46;5.00;99.90
14014;DHT22;49110;52.584;13.408;2022-12-07T00:05:48;5.10;99.90
14014;DHT22;49110;52.584;13.408;2022-12-07T00:06:51;5.00;99.90
14014;DHT22;49110;52.584;13.408;2022-12-07T00:07:52;5.10;99.90
14014;DHT22;49110;52.584;13.408;2022-12-07T00:08:53;5.10;99.90
14014;DHT22;49110;52.584;13.408;2022-12-07T00:09:53;5.00;99.90
14014;DHT22;49110;52.584;13.408;2022-12-07T00:10:54;5.10;99.90
14014;DHT22;49110;52.584;13.408;2022-12-07T00:11:54;4.90;99.90
14014;DHT22;49110;52.584;13.408;2022-12-07T00:12:55;4.90;99.90
14014;DHT22;49110;52.584;13.408;2022-12-07T00:13:57;4.90;99.90
14014;DHT22;49110;52.584;13.408;2022-12-07T00:14:58;4.90;99.90
14014;DHT22;49110;52.584;13.408;2022-12-07T00:16:16;4.80;99.90
14014;DHT22;49110;52.584;13.408;2022-12-07T00:17:17;4.90;99.90
14014;DHT22;49110;52.584;13.408;2022-12-07T00:18:17;4.90;99.90
14014;DHT22;49110;52.584;13.408;2022-12-07T00:19:18;4.90;99.90
14014;DHT22;49110;52.584;13.408;2022-12-07T00:20:18;4.90;99.90
14014;DHT22;49110;52.584;13.408;2022-12-07T00:21:24;4.90;99.90
14014;DHT22;49110;52.584;13.408;2022-12-07T00:22:25;4.90;99.90
14014;DHT22;49110;52.584;13.408;2022-12-07T00:23:26;4.80;99.90
14014;DHT22;49110;52.584;13.408;2022-12-07T00:24:26;4.90;99.90
14014;DHT22;49110;52.584;13.408;2022-12-07T00:25:26;4.80;99.90
14014;DHT22;49110;52.584;13.408;2022-12-07T00:26:35;4.90;99.90
14014;DHT22;49110;52.584;13.408;2022-12-07T00:27:36;4.90;99.90
14014;DHT22;49110;52.584;13.408;2022-12-07T00:28:37;4.80;99.90
14014;DHT22;49110;52.584;13.408;2022-12-07T00:29:37;4.90;99.90
14014;DHT22;49110;52.584;13.408;2022-12-07T00:30:38;4.90;99.90
14014;DHT22;49110;52.584;13.408;2022-12-07T00:31:38;5.00;99.90
14014;DHT22;49110;52.584;13.408;2022-12-07T00:32:39;4.90;99.90
14014;DHT22;49110;52.584;13.408;2022-12-07T00:33:39;4.90;99.90
14014;DHT22;49110;52.584;13.408;2022-12-07T00:34:40;4.90;99.90
14014;DHT22;49110;52.584;13.408;2022-12-07T00:35:40;4.90;99.90
14014;DHT22;49110;52.584;13.408;2022-12-07T00:36:41;4.90;99.90
14014;DHT22;49110;52.584;13.408;2022-12-07T00:37:41;4.90;99.90
14014;DHT22;49110;52.584;13.408;2022-12-07T00:38:42;4.90;99.90
14014;DHT22;49110;52.584;13.408;2022-12-07T00:39:42;5.00;99.90
14014;DHT22;49110;52.584;13.408;2022-12-07T00:40:43;5.00;99.90
14014;DHT22;49110;52.584;13.408;2022-12-07T00:41:43;5.00;99.90
14014;DHT22;49110;52.584;13.408;2022-12-07T00:42:44;5.00;99.90
14014;DHT22;49110;52.584;13.408;2022-12-07T00:43:45;5.00;99.90
14014;DHT22;49110;52.584;13.408;2022-12-07T00:44:46;5.00;99.90
14014;DHT22;49110;52.584;13.408;2022-12-07T00:45:47;5.00;99.90
14014;DHT22;49110;52.584;13.408;2022-12-07T00:46:47;5.00;99.90
14014;DHT22;49110;52.584;13.408;2022-12-07T00:47:48;4.90;99.90
14014;DHT22;49110;52.584;13.408;2022-12-07T00:48:49;4.90;99.90
14014;DHT22;49110;52.584;13.408;2022-12-07T00:49:50;5.00;99.90
14014;DHT22;49110;52.584;13.408;2022-12-07T00:50:51;5.00;99.90
14014;DHT22;49110;52.584;13.408;2022-12-07T00:51:51;5.00;99.90
14014;DHT22;49110;52.584;13.408;2022-12-07T00:52:52;5.00;99.90
14014;DHT22;49110;52.584;13.408;2022-12-07T00:53:52;5.00;99.90
14014;DHT22;49110;52.584;13.408;2022-12-07T00:54:53;4.90;99.90
14014;DHT22;49110;52.584;13.408;2022-12-07T00:55:53;4.90;99.90
14014;DHT22;49110;52.584;13.408;2022-12-07T00:56:55;4.90;99.90
14014;DHT22;49110;52.584;13.408;2022-12-07T00:57:56;4.90;99.90
14014;DHT22;49110;52.584;13.408;2022-12-07T00:59:01;4.90;99.90
14014;DHT22;49110;52.584;13.408;2022-12-07T01:00:02;4.90;99.90
14014;DHT22;49110;52.584;13.408;2022-12-07T01:01:04;4.90;99.90
14014;DHT22;49110;52.584;13.408;2022-12-07T01:02:05;4.80;99.90
14014;DHT22;49110;52.584;13.408;2022-12-07T01:03:06;4.90;99.90
14014;DHT22;49110;52.584;13.408;2022-12-07T01:04:08;4.80;99.90
14014;DHT22;49110;52.584;13.408;2022-12-07T01:05:08;4.70;99.90
14014;DHT22;49110;52.584;13.408;2022-12-07T01:06:09;4.70;99.90
14014;DHT22;49110;52.584;13.408;2022-12-07T01:07:09;4.60;99.90
14014;DHT22;49110;52.584;13.408;2022-12-07T01:08:10;4.60;99.90
14014;DHT22;49110;52.584;13.408;2022-12-07T01:09:10;4.70;99.90
14014;DHT22;49110;52.584;13.408;2022-12-07T01:10:11;4.70;99.90
14014;DHT22;49110;52.584;13.408;2022-12-07T01:11:14;4.70;99.90
14014;DHT22;49110;52.584;13.408;2022-12-07T01:12:15;4.60;99.90
14014;DHT22;49110;52.584;13.408;2022-12-07T01:13:16;4.70;99.90
14014;DHT22;49110;52.584;13.408;2022-12-07T01:14:16;4.70;99.90
14014;DHT22;49110;52.584;13.408;2022-12-07T01:15:17;4.70;99.90
14014;DHT22;49110;52.584;13.408;2022-12-07T01:16:19;4.70;99.90
14014;DHT22;49110;52.584;13.408;2022-12-07T01:17:19;4.80;99.90
14014;DHT22;49110;52.584;13.408;2022-12-07T01:18:20;4.80;99.90
14014;DHT22;49110;52.584;13.408;2022-12-07T01:19:20;4.80;99.90
14014;DHT22;49110;52.584;13.408;2022-12-07T01:20:21;4.90;99.90
14014;DHT22;49110;52.584;13.408;2022-12-07T01:21:24;4.90;99.90
14014;DHT22;49110;52.584;13.408;2022-12-07T01:22:25;4.90;99.90
14014;DHT22;49110;52.584;13.408;2022-12-07T01:23:26;4.90;99.90
14014;DHT22;49110;52.584;13.408;2022-12-07T01:24:26;4.90;99.90
14014;DHT22;49110;52.584;13.408;2022-12-07T01:25:27;5.00;99.90
14014;DHT22;49110;52.584;13.408;2022-12-07T01:26:27;4.90;99.90
14014;DHT22;49110;52.584;13.408;2022-12-07T01:27:28;5.00;99.90
14014;DHT22;49110;52.584;13.408;2022-12-07T01:28:29;5.00;99.90
14014;DHT22;49110;52.584;13.408;2022-12-07T01:29:30;5.00;99.90
14014;DHT22;49110;52.584;13.408;2022-12-07T01:30:30;5.10;99.90
14014;DHT22;49110;52.584;13.408;2022-12-07T01:31:31;5.00;99.90
14014;DHT22;49110;52.584;13.408;2022-12-07T01:32:32;5.00;99.90
14014;DHT22;49110;52.584;13.408;2022-12-07T01:33:35;5.10;99.90
14014;DHT22;49110;52.584;13.408;2022-12-07T01:34:36;5.10;99.90
14014;DHT22;49110;52.584;13.408;2022-12-07T01:35:37;5.00;99.90
14014;DHT22;49110;52.584;13.408;2022-12-07T01:36:37;5.10;99.90
14014;DHT22;49110;52.584;13.408;2022-12-07T01:37:38;5.00;99.90
14014;DHT22;49110;52.584;13.408;2022-12-07T01:38:39;5.00;99.90
14014;DHT22;49110;52.584;13.408;2022-12-07T01:39:40;4.90;99.90
14014;DHT22;49110;52.584;13.408;2022-12-07T01:40:41;4.90;99.90
14014;DHT22;49110;52.584;13.408;2022-12-07T01:41:42;4.90;99.90
14014;DHT22;49110;52.584;13.408;2022-12-07T01:42:43;4.90;99.90
14014;DHT22;49110;52.584;13.408;2022-12-07T01:46:19;5.00;99.90
14014;DHT22;49110;52.584;13.408;2022-12-07T01:47:19;5.00;99.90
14014;DHT22;49110;52.584;13.408;2022-12-07T01:48:27;4.90;99.90
14014;DHT22;49110;52.584;13.408;2022-12-07T01:49:44;4.90;99.90
14014;DHT22;49110;52.584;13.408;2022-12-07T01:50:48;4.90;99.90
14014;DHT22;49110;52.584;13.408;2022-12-07T01:51:53;5.00;99.90
14014;DHT22;49110;52.584;13.408;2022-12-07T01:52:56;4.90;99.90
14014;DHT22;49110;52.584;13.408;2022-12-07T01:53:58;4.90;99.90
14014;DHT22;49110;52.584;13.408;2022-12-07T01:55:03;4.90;99.90
14014;DHT22;49110;52.584;13.408;2022-12-07T01:56:05;4.90;99.90
14014;DHT22;49110;52.584;13.408;2022-12-07T01:57:09;4.90;99.90
14014;DHT22;49110;52.584;13.408;2022-12-07T01:58:11;4.90;99.90
14014;DHT22;49110;52.584;13.408;2022-12-07T01:59:13;5.00;99.90
14014;DHT22;49110;52.584;13.408;2022-12-07T02:00:14;5.00;99.90
14014;DHT22;49110;52.584;13.408;2022-12-07T02:01:14;5.00;99.90
14014;DHT22;49110;52.584;13.408;2022-12-07T02:02:34;5.00;99.90
14014;DHT22;49110;52.584;13.408;2022-12-07T02:03:38;5.00;99.90
14014;DHT22;49110;52.584;13.408;2022-12-07T02:04:39;5.00;99.90
14014;DHT22;49110;52.584;13.408;2022-12-07T02:05:41;5.00;99.90
14014;DHT22;49110;52.584;13.408;2022-12-07T02:06:43;5.00;99.90
14014;DHT22;49110;52.584;13.408;2022-12-07T02:07:46;4.90;99.90
14014;DHT22;49110;52.584;13.408;2022-12-07T02:08:48;4.90;99.90
14014;DHT22;49110;52.584;13.408;2022-12-07T02:09:48;4.90;99.90
14014;DHT22;49110;52.584;13.408;2022-12-07T02:10:49;4.90;99.90
14014;DHT22;49110;52.584;13.408;2022-12-07T02:11:50;4.80;99.90
14014;DHT22;49110;52.584;13.408;2022-12-07T02:13:13;4.80;99.90
14014;DHT22;49110;52.584;13.408;2022-12-07T02:14:15;4.80;99.90
14014;DHT22;49110;52.584;13.408;2022-12-07T02:15:16;4.90;99.90
14014;DHT22;49110;52.584;13.408;2022-12-07T02:16:25;4.90;99.90
14014;DHT22;49110;52.584;13.408;2022-12-07T02:26:12;4.80;99.90
14014;DHT22;49110;52.584;13.408;2022-12-07T02:28:51;4.80;99.90
14014;DHT22;49110;52.584;13.408;2022-12-07T02:30:06;4.80;99.90
14014;DHT22;49110;52.584;13.408;2022-12-07T02:31:12;4.80;99.90
14014;DHT22;49110;52.584;13.408;2022-12-07T02:32:24;4.80;99.90
14014;DHT22;49110;52.584;13.408;2022-12-07T02:33:52;4.80;99.90
14014;DHT22;49110;52.584;13.408;2022-12-07T02:36:12;4.80;99.90
14014;DHT22;49110;52.584;13.408;2022-12-07T02:37:23;4.80;99.90
14014;DHT22;49110;52.584;13.408;2022-12-07T02:38:45;4.80;99.90
14014;DHT22;49110;52.584;13.408;2022-12-07T02:39:51;4.80;99.90
14014;DHT22;49110;52.584;13.408;2022-12-07T02:41:06;4.80;99.90
14014;DHT22;49110;52.584;13.408;2022-12-07T02:42:17;4.80;99.90
14014;DHT22;49110;52.584;13.408;2022-12-07T02:43:30;4.80;99.90
14014;DHT22;49110;52.584;13.408;2022-12-07T02:44:34;4.80;99.90
14014;DHT22;49110;52.584;13.408;2022-12-07T02:45:39;4.80;99.90
14014;DHT22;49110;52.584;13.408;2022-12-07T02:46:43;4.80;99.90
14014;DHT22;49110;52.584;13.408;2022-12-07T02:47:47;4.80;99.90
14014;DHT22;49110;52.584;13.408;2022-12-07T02:48:49;4.80;99.90
14014;DHT22;49110;52.584;13.408;2022-12-07T02:49:51;4.80;99.90
14014;DHT22;49110;52.584;13.408;2022-12-07T02:50:53;4.80;99.90
14014;DHT22;49110;52.584;13.408;2022-12-07T02:51:54;4.80;99.90
14014;DHT22;49110;52.584;13.408;2022-12-07T02:52:55;4.80;99.90
14014;DHT22;49110;52.584;13.408;2022-12-07T02:53:55;4.80;99.90
14014;DHT22;49110;52.584;13.408;2022-12-07T02:54:56;4.80;99.90
14014;DHT22;49110;52.584;13.408;2022-12-07T02:55:57;4.90;99.90
14014;DHT22;49110;52.584;13.408;2022-12-07T03:00:04;4.80;99.90
14014;DHT22;49110;52.584;13.408;2022-12-07T03:01:16;4.80;99.90
14014;DHT22;49110;52.584;13.408;2022-12-07T03:03:25;4.80;99.90
14014;DHT22;49110;52.584;13.408;2022-12-07T03:06:10;4.80;99.90
14014;DHT22;49110;52.584;13.408;2022-12-07T03:10:03;4.80;99.90
14014;DHT22;49110;52.584;13.408;2022-12-07T03:11:10;4.80;99.90
14014;DHT22;49110;52.584;13.408;2022-12-07T03:12:24;4.80;99.90
14014;DHT22;49110;52.584;13.408;2022-12-07T03:13:36;4.80;99.90
14014;DHT22;49110;52.584;13.408;2022-12-07T03:15:08;4.80;99.90
14014;DHT22;49110;52.584;13.408;2022-12-07T03:16:18;4.80;99.90
14014;DHT22;49110;52.584;13.408;2022-12-07T03:17:25;4.70;99.90
14014;DHT22;49110;52.584;13.408;2022-12-07T03:18:30;4.70;99.90
14014;DHT22;49110;52.584;13.408;2022-12-07T03:19:33;4.70;99.90
14014;DHT22;49110;52.584;13.408;2022-12-07T03:20:37;4.70;99.90
14014;DHT22;49110;52.584;13.408;2022-12-07T03:21:46;4.70;99.90
14014;DHT22;49110;52.584;13.408;2022-12-07T03:22:47;4.70;99.90
14014;DHT22;49110;52.584;13.408;2022-12-07T03:23:54;4.70;99.90
14014;DHT22;49110;52.584;13.408;2022-12-07T03:25:03;4.70;99.90
14014;DHT22;49110;52.584;13.408;2022-12-07T03:26:06;4.80;99.90
14014;DHT22;49110;52.584;13.408;2022-12-07T03:27:16;4.80;99.90
14014;DHT22;49110;52.584;13.408;2022-12-07T03:28:22;4.80;99.90
14014;DHT22;49110;52.584;13.408;2022-12-07T03:29:36;4.80;99.90
14014;DHT22;49110;52.584;13.408;2022-12-07T03:30:45;4.80;99.90
14014;DHT22;49110;52.584;13.408;2022-12-07T03:31:51;4.70;99.90
14014;DHT22;49110;52.584;13.408;2022-12-07T03:33:04;4.80;99.90
14014;DHT22;49110;52.584;13.408;2022-12-07T03:35:09;4.80;99.90
14014;DHT22;49110;52.584;13.408;2022-12-07T03:36:06;4.80;99.90
14014;DHT22;49110;52.584;13.408;2022-12-07T03:37:18;4.80;99.90
14014;DHT22;49110;52.584;13.408;2022-12-07T03:38:33;4.80;99.90
14014;DHT22;49110;52.584;13.408;2022-12-07T03:39:41;4.80;99.90
14014;DHT22;49110;52.584;13.408;2022-12-07T03:40:49;4.80;99.90
14014;DHT22;49110;52.584;13.408;2022-12-07T03:41:51;4.80;99.90
14014;DHT22;49110;52.584;13.408;2022-12-07T03:42:53;4.90;99.90
14014;DHT22;49110;52.584;13.408;2022-12-07T03:43:55;4.90;99.90
14014;DHT22;49110;52.584;13.408;2022-12-07T03:44:56;4.90;99.90
14014;DHT22;49110;52.584;13.408;2022-12-07T03:46:17;4.90;99.90
14014;DHT22;49110;52.584;13.408;2022-12-07T03:47:31;4.90;99.90
14014;DHT22;49110;52.584;13.408;2022-12-07T03:48:41;4.90;99.90
14014;DHT22;49110;52.584;13.408;2022-12-07T03:49:48;4.90;99.90
14014;DHT22;49110;52.584;13.408;2022-12-07T03:50:52;4.90;99.90
14014;DHT22;49110;52.584;13.408;2022-12-07T03:52:22;5.00;99.90
14014;DHT22;49110;52.584;13.408;2022-12-07T03:53:46;4.90;99.90
14014;DHT22;49110;52.584;13.408;2022-12-07T03:55:02;4.90;99.90
14014;DHT22;49110;52.584;13.408;2022-12-07T03:56:06;4.90;99.90
14014;DHT22;49110;52.584;13.408;2022-12-07T03:57:08;5.00;99.90
14014;DHT22;49110;52.584;13.408;2022-12-07T03:58:16;5.00;99.90
14014;DHT22;49110;52.584;13.408;2022-12-07T03:59:18;5.00;99.90
14014;DHT22;49110;52.584;13.408;2022-12-07T04:00:19;5.00;99.90
14014;DHT22;49110;52.584;13.408;2022-12-07T04:01:20;4.90;99.90
14014;DHT22;49110;52.584;13.408;2022-12-07T04:02:20;5.00;99.90
14014;DHT22;49110;52.584;13.408;2022-12-07T04:03:21;5.00;99.90
14014;DHT22;49110;52.584;13.408;2022-12-07T04:04:24;5.00;99.90
14014;DHT22;49110;52.584;13.408;2022-12-07T04:05:25;5.00;99.90
14014;DHT22;49110;52.584;13.408;2022-12-07T04:06:26;5.00;99.90
14014;DHT22;49110;52.584;13.408;2022-12-07T04:07:26;5.00;99.90
14014;DHT22;49110;52.584;13.408;2022-12-07T04:08:27;5.00;99.90
14014;DHT22;49110;52.584;13.408;2022-12-07T04:09:27;5.00;99.90
14014;DHT22;49110;52.584;13.408;2022-12-07T04:10:28;5.00;99.90
14014;DHT22;49110;52.584;13.408;2022-12-07T04:11:28;4.90;99.90
14014;DHT22;49110;52.584;13.408;2022-12-07T04:12:29;5.00;99.90
14014;DHT22;49110;52.584;13.408;2022-12-07T04:13:29;5.00;99.90
14014;DHT22;49110;52.584;13.408;2022-12-07T04:14:30;4.90;99.90
14014;DHT22;49110;52.584;13.408;2022-12-07T04:15:30;4.90;99.90
14014;DHT22;49110;52.584;13.408;2022-12-07T04:16:31;4.90;99.90
14014;DHT22;49110;52.584;13.408;2022-12-07T04:17:31;5.00;99.90
14014;DHT22;49110;52.584;13.408;2022-12-07T04:18:32;5.00;99.90
14014;DHT22;49110;52.584;13.408;2022-12-07T04:19:33;5.00;99.90
14014;DHT22;49110;52.584;13.408;2022-12-07T04:20:34;5.00;99.90
14014;DHT22;49110;52.584;13.408;2022-12-07T04:21:34;5.00;99.90
14014;DHT22;49110;52.584;13.408;2022-12-07T04:22:35;5.00;99.90
14014;DHT22;49110;52.584;13.408;2022-12-07T04:23:35;5.00;99.90
14014;DHT22;49110;52.584;13.408;2022-12-07T04:24:36;5.00;99.90
14014;DHT22;49110;52.584;13.408;2022-12-07T04:25:36;5.10;99.90
14014;DHT22;49110;52.584;13.408;2022-12-07T04:26:37;5.10;99.90
14014;DHT22;49110;52.584;13.408;2022-12-07T04:27:37;5.10;99.90
14014;DHT22;49110;52.584;13.408;2022-12-07T04:28:38;5.10;99.90
14014;DHT22;49110;52.584;13.408;2022-12-07T04:29:38;5.10;99.90
14014;DHT22;49110;52.584;13.408;2022-12-07T04:30:39;5.10;99.90
14014;DHT22;49110;52.584;13.408;2022-12-07T04:31:40;5.10;99.90
14014;DHT22;49110;52.584;13.408;2022-12-07T04:32:40;5.10;99.90
14014;DHT22;49110;52.584;13.408;2022-12-07T04:33:41;5.00;99.90
14014;DHT22;49110;52.584;13.408;2022-12-07T04:34:41;5.00;99.90
14014;DHT22;49110;52.584;13.408;2022-12-07T04:35:43;5.00;99.90
14014;DHT22;49110;52.584;13.408;2022-12-07T04:36:43;5.00;99.90
14014;DHT22;49110;52.584;13.408;2022-12-07T04:37:44;5.00;99.90
14014;DHT22;49110;52.584;13.408;2022-12-07T04:38:44;5.00;99.90
14014;DHT22;49110;52.584;13.408;2022-12-07T04:39:45;5.00;99.90
14014;DHT22;49110;52.584;13.408;2022-12-07T04:40:45;5.00;99.90
14014;DHT22;49110;52.584;13.408;2022-12-07T04:41:46;5.00;99.90
14014;DHT22;49110;52.584;13.408;2022-12-07T04:42:46;5.00;99.90
14014;DHT22;49110;52.584;13.408;2022-12-07T04:43:47;5.00;99.90
14014;DHT22;49110;52.584;13.408;2022-12-07T04:44:47;5.00;99.90
14014;DHT22;49110;52.584;13.408;2022-12-07T04:45:48;4.90;99.90
14014;DHT22;49110;52.584;13.408;2022-12-07T04:46:49;4.90;99.90
14014;DHT22;49110;52.584;13.408;2022-12-07T04:47:49;5.00;99.90
14014;DHT22;49110;52.584;13.408;2022-12-07T04:48:51;5.00;99.90
14014;DHT22;49110;52.584;13.408;2022-12-07T04:49:52;5.00;99.90
14014;DHT22;49110;52.584;13.408;2022-12-07T04:50:52;5.00;99.90
14014;DHT22;49110;52.584;13.408;2022-12-07T04:51:53;5.00;99.90
14014;DHT22;49110;52.584;13.408;2022-12-07T04:52:53;5.00;99.90
14014;DHT22;49110;52.584;13.408;2022-12-07T04:53:55;5.00;99.90
14014;DHT22;49110;52.584;13.408;2022-12-07T04:54:56;5.00;99.90
14014;DHT22;49110;52.584;13.408;2022-12-07T04:55:56;5.00;99.90
14014;DHT22;49110;52.584;13.408;2022-12-07T04:56:56;4.90;99.90
14014;DHT22;49110;52.584;13.408;2022-12-07T04:57:57;4.90;99.90
14014;DHT22;49110;52.584;13.408;2022-12-07T04:58:58;4.90;99.90
14014;DHT22;49110;52.584;13.408;2022-12-07T04:59:58;4.90;99.90
14014;DHT22;49110;52.584;13.408;2022-12-07T05:00:59;4.90;99.90
14014;DHT22;49110;52.584;13.408;2022-12-07T05:01:59;4.90;99.90
14014;DHT22;49110;52.584;13.408;2022-12-07T05:02:59;5.00;99.90
14014;DHT22;49110;52.584;13.408;2022-12-07T05:04:00;5.00;99.90
14014;DHT22;49110;52.584;13.408;2022-12-07T05:05:01;5.00;99.90
14014;DHT22;49110;52.584;13.408;2022-12-07T05:06:01;5.00;99.90
14014;DHT22;49110;52.584;13.408;2022-12-07T05:07:02;5.00;99.90
14014;DHT22;49110;52.584;13.408;2022-12-07T05:08:02;5.00;99.90
14014;DHT22;49110;52.584;13.408;2022-12-07T05:09:04;5.00;99.90
14014;DHT22;49110;52.584;13.408;2022-12-07T05:10:05;5.00;99.90
14014;DHT22;49110;52.584;13.408;2022-12-07T05:11:07;5.10;99.90
14014;DHT22;49110;52.584;13.408;2022-12-07T05:12:07;5.00;99.90
14014;DHT22;49110;52.584;13.408;2022-12-07T05:13:08;5.10;99.90
14014;DHT22;49110;52.584;13.408;2022-12-07T05:14:21;5.10;99.90
14014;DHT22;49110;52.584;13.408;2022-12-07T05:15:21;5.10;99.90
14014;DHT22;49110;52.584;13.408;2022-12-07T05:16:22;5.10;99.90
14014;DHT22;49110;52.584;13.408;2022-12-07T05:17:22;5.10;99.90
14014;DHT22;49110;52.584;13.408;2022-12-07T05:18:23;5.10;99.90
14014;DHT22;49110;52.584;13.408;2022-12-07T05:19:23;5.10;99.90
14014;DHT22;49110;52.584;13.408;2022-12-07T05:20:24;5.10;99.90
14014;DHT22;49110;52.584;13.408;2022-12-07T05:21:24;5.10;99.90
14014;DHT22;49110;52.584;13.408;2022-12-07T05:22:25;5.10;99.90
14014;DHT22;49110;52.584;13.408;2022-12-07T05:23:28;5.10;99.90
14014;DHT22;49110;52.584;13.408;2022-12-07T05:24:28;5.10;99.90
14014;DHT22;49110;52.584;13.408;2022-12-07T05:25:29;5.10;99.90
14014;DHT22;49110;52.584;13.408;2022-12-07T05:26:29;5.00;99.90
14014;DHT22;49110;52.584;13.408;2022-12-07T05:27:30;5.00;99.90
14014;DHT22;49110;52.584;13.408;2022-12-07T05:28:30;5.00;99.90
14014;DHT22;49110;52.584;13.408;2022-12-07T05:29:31;5.00;99.90
14014;DHT22;49110;52.584;13.408;2022-12-07T05:30:32;5.10;99.90
14014;DHT22;49110;52.584;13.408;2022-12-07T05:31:33;5.10;99.90
14014;DHT22;49110;52.584;13.408;2022-12-07T05:32:34;5.10;99.90
14014;DHT22;49110;52.584;13.408;2022-12-07T05:33:35;5.20;99.90
14014;DHT22;49110;52.584;13.408;2022-12-07T05:34:35;5.20;99.90
14014;DHT22;49110;52.584;13.408;2022-12-07T05:35:36;5.20;99.90
14014;DHT22;49110;52.584;13.408;2022-12-07T05:36:38;5.20;99.90
14014;DHT22;49110;52.584;13.408;2022-12-07T05:37:38;5.20;99.90
14014;DHT22;49110;52.584;13.408;2022-12-07T05:38:39;5.20;99.90
14014;DHT22;49110;52.584;13.408;2022-12-07T05:39:39;5.10;99.90
14014;DHT22;49110;52.584;13.408;2022-12-07T05:40:42;5.10;99.90
14014;DHT22;49110;52.584;13.408;2022-12-07T05:41:43;5.10;99.90
14014;DHT22;49110;52.584;13.408;2022-12-07T05:43:02;5.10;99.90
14014;DHT22;49110;52.584;13.408;2022-12-07T05:44:04;5.10;99.90
14014;DHT22;49110;52.584;13.408;2022-12-07T05:45:05;5.10;99.90
14014;DHT22;49110;52.584;13.408;2022-12-07T05:46:06;5.10;99.90
14014;DHT22;49110;52.584;13.408;2022-12-07T05:47:07;5.10;99.90
14014;DHT22;49110;52.584;13.408;2022-12-07T05:48:07;5.20;99.90
14014;DHT22;49110;52.584;13.408;2022-12-07T05:49:08;5.20;99.90
14014;DHT22;49110;52.584;13.408;2022-12-07T05:50:08;5.20;99.90
14014;DHT22;49110;52.584;13.408;2022-12-07T05:51:09;5.20;99.90
14014;DHT22;49110;52.584;13.408;2022-12-07T05:52:09;5.20;99.90
14014;DHT22;49110;52.584;13.408;2022-12-07T05:53:10;5.20;99.90
14014;DHT22;49110;52.584;13.408;2022-12-07T05:54:10;5.20;99.90
14014;DHT22;49110;52.584;13.408;2022-12-07T05:55:11;5.30;99.90
14014;DHT22;49110;52.584;13.408;2022-12-07T05:56:12;5.30;99.90
14014;DHT22;49110;52.584;13.408;2022-12-07T05:57:12;5.20;99.90
14014;DHT22;49110;52.584;13.408;2022-12-07T05:58:13;5.30;99.90
14014;DHT22;49110;52.584;13.408;2022-12-07T05:59:32;5.30;99.90
14014;DHT22;49110;52.584;13.408;2022-12-07T06:00:32;5.30;99.90
14014;DHT22;49110;52.584;13.408;2022-12-07T06:01:33;5.30;99.90
14014;DHT22;49110;52.584;13.408;2022-12-07T06:02:33;5.30;99.90
14014;DHT22;49110;52.584;13.408;2022-12-07T06:03:33;5.30;99.90
14014;DHT22;49110;52.584;13.408;2022-12-07T06:04:37;5.30;99.90
14014;DHT22;49110;52.584;13.408;2022-12-07T06:05:38;5.30;99.90
14014;DHT22;49110;52.584;13.408;2022-12-07T06:06:38;5.30;99.90
14014;DHT22;49110;52.584;13.408;2022-12-07T06:07:39;5.30;99.90
14014;DHT22;49110;52.584;13.408;2022-12-07T06:08:39;5.30;99.90
14014;DHT22;49110;52.584;13.408;2022-12-07T06:09:40;5.30;99.90
14014;DHT22;49110;52.584;13.408;2022-12-07T06:10:41;5.30;99.90
14014;DHT22;49110;52.584;13.408;2022-12-07T06:11:42;5.30;99.90
14014;DHT22;49110;52.584;13.408;2022-12-07T06:13:01;5.30;99.90
14014;DHT22;49110;52.584;13.408;2022-12-07T06:14:01;5.40;99.90
14014;DHT22;49110;52.584;13.408;2022-12-07T06:15:02;5.40;99.90
14014;DHT22;49110;52.584;13.408;2022-12-07T06:16:02;5.40;99.90
14014;DHT22;49110;52.584;13.408;2022-12-07T06:17:03;5.40;99.90
14014;DHT22;49110;52.584;13.408;2022-12-07T06:18:04;5.40;99.90
14014;DHT22;49110;52.584;13.408;2022-12-07T06:19:05;5.30;99.90
14014;DHT22;49110;52.584;13.408;2022-12-07T06:20:06;5.30;99.90
14014;DHT22;49110;52.584;13.408;2022-12-07T06:21:06;5.30;99.90
14014;DHT22;49110;52.584;13.408;2022-12-07T06:22:09;5.30;99.90
14014;DHT22;49110;52.584;13.408;2022-12-07T06:23:11;5.30;99.90
14014;DHT22;49110;52.584;13.408;2022-12-07T06:24:13;5.30;99.90
14014;DHT22;49110;52.584;13.408;2022-12-07T06:25:13;5.30;99.90
14014;DHT22;49110;52.584;13.408;2022-12-07T06:26:14;5.40;99.90
14014;DHT22;49110;52.584;13.408;2022-12-07T06:27:14;5.40;99.90
14014;DHT22;49110;52.584;13.408;2022-12-07T06:28:15;5.40;99.90
14014;DHT22;49110;52.584;13.408;2022-12-07T06:29:16;5.50;99.90
14014;DHT22;49110;52.584;13.408;2022-12-07T06:30:16;5.50;99.90
14014;DHT22;49110;52.584;13.408;2022-12-07T06:31:17;5.50;99.90
14014;DHT22;49110;52.584;13.408;2022-12-07T06:32:17;5.50;99.90
14014;DHT22;49110;52.584;13.408;2022-12-07T06:33:18;5.50;99.90
14014;DHT22;49110;52.584;13.408;2022-12-07T06:34:21;5.50;99.90
14014;DHT22;49110;52.584;13.408;2022-12-07T06:35:25;5.50;99.90
14014;DHT22;49110;52.584;13.408;2022-12-07T06:36:26;5.50;99.90
14014;DHT22;49110;52.584;13.408;2022-12-07T06:37:26;5.50;99.90
14014;DHT22;49110;52.584;13.408;2022-12-07T06:38:27;5.50;99.90
14014;DHT22;49110;52.584;13.408;2022-12-07T06:39:28;5.50;99.90
14014;DHT22;49110;52.584;13.408;2022-12-07T06:40:29;5.60;99.90
14014;DHT22;49110;52.584;13.408;2022-12-07T06:41:29;5.60;99.90
14014;DHT22;49110;52.584;13.408;2022-12-07T06:42:30;5.60;99.90
14014;DHT22;49110;52.584;13.408;2022-12-07T06:43:30;5.60;99.90
14014;DHT22;49110;52.584;13.408;2022-12-07T06:44:31;5.60;99.90
14014;DHT22;49110;52.584;13.408;2022-12-07T06:45:31;5.70;99.90
14014;DHT22;49110;52.584;13.408;2022-12-07T06:46:32;5.60;99.90
14014;DHT22;49110;52.584;13.408;2022-12-07T06:47:33;5.70;99.90
14014;DHT22;49110;52.584;13.408;2022-12-07T06:48:33;5.70;99.90
14014;DHT22;49110;52.584;13.408;2022-12-07T06:49:34;5.60;99.90
14014;DHT22;49110;52.584;13.408;2022-12-07T06:50:34;5.60;99.90
14014;DHT22;49110;52.584;13.408;2022-12-07T06:51:35;5.60;99.90
14014;DHT22;49110;52.584;13.408;2022-12-07T06:52:36;5.60;99.90
14014;DHT22;49110;52.584;13.408;2022-12-07T06:53:37;5.60;99.90
14014;DHT22;49110;52.584;13.408;2022-12-07T06:54:38;5.60;99.90
14014;DHT22;49110;52.584;13.408;2022-12-07T06:55:38;5.50;99.90
14014;DHT22;49110;52.584;13.408;2022-12-07T06:56:39;5.60;99.90
14014;DHT22;49110;52.584;13.408;2022-12-07T06:57:39;5.50;99.90
14014;DHT22;49110;52.584;13.408;2022-12-07T06:58:40;5.60;99.90
14014;DHT22;49110;52.584;13.408;2022-12-07T06:59:40;5.60;99.90